createdAt,value
2022-10-29T00:00:56.156Z,2.37
2022-10-29T00:03:24.292Z,2.53
2022-10-29T00:06:01.669Z,2.60
2022-10-29T00:08:30.579Z,2.10
2022-10-29T00:11:12.590Z,2.30
2022-10-29T00:13:40.331Z,1.90
2022-10-29T00:16:14.175Z,2.00
2022-10-29T00:18:41.790Z,2.67
2022-10-29T00:21:12.798Z,2.23
2022-10-29T00:23:40.326Z,2.47
2022-10-29T00:26:07.834Z,2.37
2022-10-29T00:28:35.432Z,2.30
2022-10-29T00:31:04.659Z,1.73
2022-10-29T00:33:32.213Z,1.87
2022-10-29T00:36:05.349Z,1.70
2022-10-29T00:38:34.094Z,1.93
2022-10-29T00:41:02.718Z,2.00
2022-10-29T00:43:30.238Z,2.10
2022-10-29T00:46:12.867Z,1.60
2022-10-29T00:48:46.191Z,2.27
2022-10-29T00:51:15.457Z,1.97
2022-10-29T00:53:50.918Z,2.60
2022-10-29T00:56:18.338Z,1.87
2022-10-29T00:58:46.086Z,2.27
2022-10-29T01:01:14.208Z,2.00
2022-10-29T01:03:41.746Z,2.70
2022-10-29T01:06:09.200Z,2.03
2022-10-29T01:08:36.445Z,2.10
2022-10-29T01:11:28.193Z,1.80
2022-10-29T01:14:25.801Z,2.20
2022-10-29T01:17:19.402Z,1.67
2022-10-29T01:20:08.397Z,1.90
2022-10-29T01:23:07.762Z,2.23
2022-10-29T01:26:08.495Z,2.30
2022-10-29T01:29:25.809Z,2.07
2022-10-29T01:32:14.233Z,1.73
2022-10-29T01:34:52.482Z,2.10
2022-10-29T01:37:34.462Z,1.80
2022-10-29T01:40:41.318Z,2.00
2022-10-29T01:43:25.356Z,1.60
2022-10-29T01:46:01.881Z,2.40
2022-10-29T01:48:39.372Z,1.67
2022-10-29T01:51:12.174Z,2.20
2022-10-29T01:53:39.755Z,2.53
2022-10-29T01:56:07.217Z,1.60
2022-10-29T01:58:35.946Z,2.60
2022-10-29T02:01:25.695Z,1.93
2022-10-29T02:04:27.594Z,2.20
2022-10-29T02:07:00.653Z,2.20
2022-10-29T02:09:38.762Z,1.90
2022-10-29T02:12:27.365Z,1.87
2022-10-29T02:15:03.409Z,1.63
2022-10-29T02:17:32.614Z,2.03
2022-10-29T02:20:03.134Z,1.93
2022-10-29T02:22:30.310Z,1.63
2022-10-29T02:24:57.771Z,1.83
2022-10-29T02:27:25.019Z,2.03
2022-10-29T02:29:52.246Z,2.03
2022-10-29T02:32:19.326Z,1.73
2022-10-29T02:34:46.446Z,2.20
2022-10-29T02:37:13.599Z,1.80
2022-10-29T02:39:40.839Z,1.83
2022-10-29T02:42:07.949Z,2.23
2022-10-29T02:44:35.060Z,1.47
2022-10-29T02:47:02.186Z,1.57
2022-10-29T02:49:29.411Z,1.90
2022-10-29T02:51:56.581Z,1.67
2022-10-29T02:54:23.733Z,1.60
2022-10-29T02:56:50.826Z,1.40
2022-10-29T02:59:17.938Z,1.70
2022-10-29T03:01:45.160Z,1.80
2022-10-29T03:04:12.415Z,1.87
2022-10-29T03:06:39.549Z,2.00
2022-10-29T03:09:06.737Z,1.83
2022-10-29T03:11:33.828Z,1.80
2022-10-29T03:14:00.962Z,1.83
2022-10-29T03:16:28.141Z,1.77
2022-10-29T03:18:55.304Z,2.10
2022-10-29T03:21:22.422Z,1.83
2022-10-29T03:23:49.584Z,1.63
2022-10-29T03:26:17.006Z,2.30
2022-10-29T03:28:44.179Z,1.63
2022-10-29T03:31:11.336Z,1.87
2022-10-29T03:33:41.315Z,1.90
2022-10-29T03:36:08.775Z,2.40
2022-10-29T03:38:35.964Z,1.90
2022-10-29T03:41:08.636Z,2.00
2022-10-29T03:43:39.580Z,1.83
2022-10-29T03:46:07.470Z,2.83
2022-10-29T03:48:34.656Z,2.20
2022-10-29T03:51:05.990Z,2.47
2022-10-29T03:53:34.618Z,2.20
2022-10-29T03:56:02.137Z,1.87
2022-10-29T03:58:29.325Z,1.90
2022-10-29T04:00:59.252Z,2.10
2022-10-29T04:03:27.988Z,2.03
2022-10-29T04:05:55.637Z,1.77
2022-10-29T04:08:23.129Z,1.80
2022-10-29T04:10:51.427Z,1.83
2022-10-29T04:13:19.468Z,2.00
2022-10-29T04:15:46.929Z,2.10
2022-10-29T04:18:14.309Z,2.23
2022-10-29T04:21:36.705Z,1.90
2022-10-29T04:29:04.121Z,1.80
2022-10-29T04:31:31.267Z,2.23
2022-10-29T04:33:58.338Z,1.83
2022-10-29T04:36:25.462Z,2.00
2022-10-29T04:38:52.717Z,2.23
2022-10-29T04:41:19.899Z,1.80
2022-10-29T04:43:46.989Z,1.70
2022-10-29T04:46:14.220Z,2.30
2022-10-29T04:48:41.404Z,3.10
2022-10-29T04:51:19.642Z,1.67
2022-10-29T04:53:46.744Z,1.83
2022-10-29T04:56:14.037Z,2.23
2022-10-29T04:58:41.158Z,2.27
2022-10-29T05:01:08.603Z,2.00
2022-10-29T05:03:35.915Z,2.40
2022-10-29T05:06:06.783Z,2.13
2022-10-29T05:08:34.366Z,2.73
2022-10-29T05:11:03.614Z,2.23
2022-10-29T05:13:30.809Z,2.37
2022-10-29T05:15:58.219Z,2.00
2022-10-29T05:18:25.393Z,2.20
2022-10-29T05:20:56.581Z,1.87
2022-10-29T05:23:24.226Z,2.43
2022-10-29T05:25:52.467Z,1.83
2022-10-29T05:28:22.168Z,1.80
2022-10-29T05:30:51.095Z,2.00
2022-10-29T05:33:20.816Z,2.13
2022-10-29T05:35:48.192Z,2.13
2022-10-29T05:38:15.889Z,2.53
2022-10-29T05:40:45.234Z,4.37
2022-10-29T05:43:13.889Z,4.83
2022-10-29T05:45:41.838Z,3.37
2022-10-29T05:50:39.865Z,2.40
2022-10-29T05:53:09.831Z,2.97
2022-10-29T05:55:37.265Z,4.70
2022-10-29T05:58:06.999Z,4.73
2022-10-29T06:00:36.637Z,3.53
2022-10-29T06:03:04.216Z,2.43
2022-10-29T06:05:31.595Z,2.00
2022-10-29T06:08:00.545Z,2.07
2022-10-29T06:10:29.543Z,1.73
2022-10-29T06:12:56.682Z,1.93
2022-10-29T06:15:24.103Z,2.60
2022-10-29T06:17:51.462Z,2.37
2022-10-29T06:20:21.087Z,2.73
2022-10-29T06:22:55.855Z,2.10
2022-10-29T06:25:24.963Z,2.50
2022-10-29T06:28:02.913Z,2.33
2022-10-29T06:30:31.071Z,2.30
2022-10-29T06:32:58.750Z,2.30
2022-10-29T06:35:26.638Z,3.03
2022-10-29T06:37:54.229Z,2.77
2022-10-29T06:40:21.779Z,2.30
2022-10-29T06:42:49.305Z,2.40
2022-10-29T06:45:16.547Z,2.90
2022-10-29T06:47:45.566Z,2.30
2022-10-29T06:50:14.161Z,3.40
2022-10-29T06:52:41.298Z,2.70
2022-10-29T06:55:08.934Z,2.90
2022-10-29T06:57:36.406Z,3.80
2022-10-29T07:00:08.359Z,3.33
2022-10-29T07:02:35.856Z,2.47
2022-10-29T07:05:03.051Z,3.27
2022-10-29T07:07:30.156Z,2.70
2022-10-29T07:09:58.262Z,3.00
2022-10-29T07:12:25.461Z,3.30
2022-10-29T07:14:52.684Z,2.97
2022-10-29T07:17:19.852Z,3.03
2022-10-29T07:19:47.055Z,3.20
2022-10-29T07:22:14.162Z,3.33
2022-10-29T07:24:41.276Z,3.40
2022-10-29T07:27:09.432Z,3.00
2022-10-29T07:29:36.633Z,2.60
2022-10-29T07:32:03.855Z,3.30
2022-10-29T07:34:31.026Z,2.40
2022-10-29T07:36:58.282Z,3.17
2022-10-29T07:39:25.512Z,2.53
2022-10-29T07:41:54.124Z,2.60
2022-10-29T07:44:23.830Z,4.10
2022-10-29T07:46:51.005Z,5.43
2022-10-29T07:49:18.355Z,5.40
2022-10-29T07:51:45.638Z,4.70
2022-10-29T07:54:14.886Z,6.07
2022-10-29T07:56:45.163Z,4.20
2022-10-29T07:59:15.727Z,4.40
2022-10-29T08:01:43.151Z,4.20
2022-10-29T08:04:10.578Z,4.37
2022-10-29T08:06:37.753Z,4.50
2022-10-29T08:09:04.833Z,4.70
2022-10-29T08:11:34.790Z,3.73
2022-10-29T08:14:01.988Z,4.00
2022-10-29T08:16:29.670Z,3.20
2022-10-29T08:18:57.090Z,2.60
2022-10-29T08:21:24.598Z,3.30
2022-10-29T08:23:51.834Z,3.17
2022-10-29T08:26:20.465Z,3.30
2022-10-29T08:28:47.761Z,2.67
2022-10-29T08:31:16.097Z,5.13
2022-10-29T08:33:43.237Z,3.00
2022-10-29T08:36:10.471Z,2.87
2022-10-29T08:38:37.624Z,3.03
2022-10-29T08:41:17.064Z,2.83
2022-10-29T08:44:06.856Z,2.70
2022-10-29T08:46:56.918Z,2.80
2022-10-29T08:49:34.099Z,2.20
2022-10-29T08:52:07.382Z,2.40
2022-10-29T08:54:39.902Z,3.00
2022-10-29T08:57:15.121Z,2.17
2022-10-29T09:00:03.658Z,3.23
2022-10-29T09:02:31.049Z,3.20
2022-10-29T09:04:59.287Z,2.57
2022-10-29T09:07:50.812Z,2.63
2022-10-29T09:10:20.812Z,2.93
2022-10-29T09:12:52.405Z,4.00
2022-10-29T09:15:30.831Z,4.17
2022-10-29T09:18:12.986Z,3.63
2022-10-29T09:20:49.074Z,2.90
2022-10-29T09:23:45.141Z,2.97
2022-10-29T09:26:18.165Z,2.77
2022-10-29T09:29:23.010Z,2.40
2022-10-29T09:32:05.516Z,2.50
2022-10-29T09:34:38.467Z,2.30
2022-10-29T09:37:15.652Z,2.47
2022-10-29T09:39:46.879Z,2.43
2022-10-29T09:42:18.909Z,2.60
2022-10-29T09:45:02.678Z,2.90
2022-10-29T09:47:29.801Z,2.77
2022-10-29T09:50:20.519Z,1.80
2022-10-29T09:52:49.667Z,2.37
2022-10-29T09:55:27.241Z,2.63
2022-10-29T09:57:56.768Z,2.63
2022-10-29T10:00:27.144Z,2.77
2022-10-29T10:03:10.882Z,1.80
2022-10-29T10:06:00.527Z,2.10
2022-10-29T10:08:28.036Z,2.37
2022-10-29T10:11:07.087Z,2.97
2022-10-29T10:13:51.096Z,1.93
2022-10-29T10:16:26.592Z,2.97
2022-10-29T10:18:54.211Z,2.20
2022-10-29T10:21:28.975Z,2.70
2022-10-29T10:24:00.336Z,3.10
2022-10-29T10:26:28.641Z,3.30
2022-10-29T10:29:19.247Z,2.43
2022-10-29T10:31:55.552Z,2.20
2022-10-29T10:34:26.641Z,2.63
2022-10-29T10:37:02.262Z,2.77
2022-10-29T10:39:35.276Z,2.90
2022-10-29T10:42:24.969Z,2.33
2022-10-29T10:45:05.402Z,2.27
2022-10-29T10:47:36.705Z,3.20
2022-10-29T10:50:30.718Z,2.17
2022-10-29T10:53:00.016Z,2.20
2022-10-29T10:55:38.715Z,2.30
2022-10-29T10:58:16.675Z,2.07
2022-10-29T11:00:53.775Z,2.13
2022-10-29T11:03:30.957Z,1.97
2022-10-29T11:06:07.854Z,2.43
2022-10-29T11:08:38.368Z,2.13
2022-10-29T11:11:15.310Z,2.03
2022-10-29T11:13:43.553Z,2.10
2022-10-29T11:16:31.212Z,2.53
2022-10-29T11:19:15.297Z,2.30
2022-10-29T11:22:10.508Z,2.20
2022-10-29T11:25:00.285Z,2.33
2022-10-29T11:27:53.186Z,1.90
2022-10-29T11:30:20.924Z,2.07
2022-10-29T11:33:27.020Z,2.17
2022-10-29T11:36:04.726Z,3.10
2022-10-29T11:38:45.075Z,2.43
2022-10-29T11:41:39.932Z,1.77
2022-10-29T11:44:15.617Z,2.30
2022-10-29T11:47:22.086Z,2.00
2022-10-29T11:50:07.995Z,2.60
2022-10-29T11:52:48.093Z,2.03
2022-10-29T11:55:42.801Z,1.90
2022-10-29T11:58:48.877Z,1.90
2022-10-29T12:01:46.173Z,2.70
2022-10-29T12:04:44.986Z,2.27
2022-10-29T12:07:32.410Z,2.50
2022-10-29T12:10:21.946Z,2.73
2022-10-29T12:13:09.387Z,3.90
2022-10-29T12:16:02.494Z,2.83
2022-10-29T12:18:51.370Z,3.33
2022-10-29T12:21:47.474Z,3.10
2022-10-29T12:24:17.416Z,4.03
2022-10-29T12:27:00.941Z,3.67
2022-10-29T12:29:59.045Z,3.10
2022-10-29T12:32:43.348Z,3.10
2022-10-29T12:35:21.081Z,2.60
2022-10-29T12:38:07.149Z,2.20
2022-10-29T12:40:37.996Z,2.37
2022-10-29T12:43:11.906Z,2.00
2022-10-29T12:46:14.774Z,2.43
2022-10-29T12:48:52.353Z,1.97
2022-10-29T12:51:46.678Z,2.27
2022-10-29T12:54:30.803Z,2.13
2022-10-29T12:57:05.266Z,1.93
2022-10-29T12:59:36.603Z,2.40
2022-10-29T13:02:25.263Z,2.33
2022-10-29T13:05:10.554Z,2.70
2022-10-29T13:07:47.903Z,2.50
2022-10-29T13:10:29.496Z,2.83
2022-10-29T13:12:59.780Z,3.03
2022-10-29T13:15:37.460Z,2.70
2022-10-29T13:18:44.814Z,3.33
2022-10-29T13:21:12.082Z,3.83
2022-10-29T13:23:39.259Z,2.60
2022-10-29T13:26:08.113Z,2.47
2022-10-29T13:28:38.021Z,2.50
2022-10-29T13:31:05.303Z,2.70
2022-10-29T13:33:32.374Z,2.70
2022-10-29T13:36:04.091Z,2.50
2022-10-29T13:39:05.594Z,2.70
2022-10-29T13:41:44.102Z,2.13
2022-10-29T13:44:31.717Z,2.40
2022-10-29T13:47:02.458Z,2.27
2022-10-29T13:49:45.706Z,2.47
2022-10-29T13:52:20.601Z,2.40
2022-10-29T13:54:55.214Z,2.30
2022-10-29T13:57:37.373Z,2.90
2022-10-29T14:00:18.168Z,2.17
2022-10-29T14:02:54.563Z,2.30
2022-10-29T14:05:40.545Z,2.80
2022-10-29T14:08:33.530Z,2.13
2022-10-29T14:11:07.502Z,1.70
2022-10-29T14:13:48.360Z,2.33
2022-10-29T14:16:20.436Z,2.43
2022-10-29T14:18:49.379Z,2.30
2022-10-29T14:21:31.007Z,2.37
2022-10-29T14:24:03.537Z,3.00
2022-10-29T14:26:33.575Z,2.27
2022-10-29T14:29:14.709Z,2.40
2022-10-29T14:31:41.903Z,2.30
2022-10-29T14:34:28.714Z,2.37
2022-10-29T14:37:05.716Z,2.90
2022-10-29T14:39:57.013Z,3.13
2022-10-29T14:42:33.317Z,3.43
2022-10-29T14:45:17.317Z,3.00
2022-10-29T14:47:50.321Z,3.10
2022-10-29T14:50:23.659Z,3.23
2022-10-29T14:52:54.326Z,10.90
2022-10-29T14:55:25.197Z,9.83
2022-10-29T14:58:02.535Z,4.53
2022-10-29T15:00:32.748Z,3.27
2022-10-29T15:03:00.212Z,4.63
2022-10-29T15:05:33.458Z,3.70
2022-10-29T15:08:31.257Z,2.97
2022-10-29T15:10:58.571Z,2.50
2022-10-29T15:13:28.538Z,2.80
2022-10-29T15:15:57.301Z,2.83
2022-10-29T15:18:25.267Z,2.83
2022-10-29T15:20:54.884Z,2.33
2022-10-29T15:23:30.766Z,2.30
2022-10-29T15:26:00.591Z,2.30
2022-10-29T15:28:30.529Z,2.77
2022-10-29T15:31:02.262Z,2.53
2022-10-29T15:33:31.586Z,2.57
2022-10-29T15:36:01.987Z,2.33
2022-10-29T15:38:34.958Z,2.53
2022-10-29T15:41:20.026Z,2.07
2022-10-29T15:43:58.512Z,2.80
2022-10-29T15:46:35.137Z,5.83
2022-10-29T15:49:02.293Z,5.33
2022-10-29T15:51:31.128Z,5.80
2022-10-29T15:54:02.689Z,4.00
2022-10-29T15:56:31.390Z,3.10
2022-10-29T15:59:00.530Z,3.67
2022-10-29T16:01:27.720Z,2.57
2022-10-29T16:03:54.992Z,2.70
2022-10-29T16:06:22.089Z,3.10
2022-10-29T16:08:50.866Z,2.53
2022-10-29T16:11:21.469Z,2.50
2022-10-29T16:13:54.809Z,3.73
2022-10-29T16:16:24.544Z,3.20
2022-10-29T16:18:52.867Z,3.50
2022-10-29T16:21:25.157Z,3.50
2022-10-29T16:23:53.031Z,3.70
2022-10-29T16:26:23.150Z,4.30
2022-10-29T16:28:52.705Z,4.80
2022-10-29T16:31:20.874Z,5.87
2022-10-29T16:33:49.319Z,4.47
2022-10-29T16:36:17.027Z,4.80
2022-10-29T16:38:44.522Z,5.17
2022-10-29T16:41:16.594Z,5.40
2022-10-29T16:43:44.036Z,5.53
2022-10-29T16:46:12.826Z,7.40
2022-10-29T16:48:40.625Z,7.90
2022-10-29T16:51:08.117Z,5.87
2022-10-29T16:53:35.568Z,5.20
2022-10-29T16:56:03.463Z,5.40
2022-10-29T16:58:30.574Z,5.70
2022-10-29T17:01:08.639Z,10.67
2022-10-29T17:03:36.033Z,7.07
2022-10-29T17:06:08.758Z,5.60
2022-10-29T17:08:37.297Z,5.17
2022-10-29T17:11:08.788Z,6.10
2022-10-29T17:13:37.478Z,5.07
2022-10-29T17:16:14.744Z,5.00
2022-10-29T17:18:42.265Z,4.60
2022-10-29T17:21:09.439Z,4.37
2022-10-29T17:23:36.620Z,4.03
2022-10-29T17:26:04.001Z,4.47
2022-10-29T17:28:31.183Z,4.10
2022-10-29T17:30:58.353Z,4.47
2022-10-29T17:33:25.441Z,4.40
2022-10-29T17:36:05.270Z,3.90
2022-10-29T17:38:32.683Z,3.30
2022-10-29T17:40:59.845Z,3.50
2022-10-29T17:43:26.991Z,4.30
2022-10-29T17:45:54.110Z,5.80
2022-10-29T17:48:25.052Z,6.33
2022-10-29T17:50:53.265Z,4.73
2022-10-29T17:53:20.733Z,3.93
2022-10-29T17:55:47.981Z,3.70
2022-10-29T17:58:18.168Z,3.93
2022-10-29T18:00:46.431Z,6.20
2022-10-29T18:03:13.633Z,5.10
2022-10-29T18:05:40.949Z,5.83
2022-10-29T18:08:08.127Z,5.60
2022-10-29T18:10:35.945Z,5.70
2022-10-29T18:13:03.408Z,4.30
2022-10-29T18:15:30.552Z,4.73
2022-10-29T18:17:59.579Z,3.93
2022-10-29T18:20:26.684Z,4.73
2022-10-29T18:22:56.006Z,4.27
2022-10-29T18:25:24.037Z,4.27
2022-10-29T18:27:55.564Z,4.53
2022-10-29T18:30:23.076Z,3.90
2022-10-29T18:32:50.349Z,4.20
2022-10-29T18:35:17.681Z,5.30
2022-10-29T18:37:46.216Z,4.97
2022-10-29T18:40:13.426Z,5.63
2022-10-29T18:42:40.626Z,5.37
2022-10-29T18:45:08.402Z,5.50
2022-10-29T18:47:35.519Z,3.83
2022-10-29T18:50:02.762Z,4.07
2022-10-29T18:52:29.855Z,4.70
2022-10-29T18:54:57.049Z,4.20
2022-10-29T18:57:24.165Z,4.40
2022-10-29T18:59:51.379Z,4.70
2022-10-29T19:02:18.590Z,4.20
2022-10-29T19:04:45.839Z,5.10
2022-10-29T19:07:12.982Z,4.70
2022-10-29T19:09:40.137Z,5.10
2022-10-29T19:12:07.370Z,5.70
2022-10-29T19:14:34.456Z,6.70
2022-10-29T19:17:01.655Z,6.33
2022-10-29T19:19:28.848Z,6.03
2022-10-29T19:21:56.005Z,4.90
2022-10-29T19:24:23.175Z,4.63
2022-10-29T19:26:50.317Z,3.63
2022-10-29T19:29:18.470Z,4.87
2022-10-29T19:31:46.570Z,3.83
2022-10-29T19:34:13.889Z,2.93
2022-10-29T19:36:41.046Z,4.03
2022-10-29T19:39:08.233Z,5.33
2022-10-29T19:41:35.539Z,4.47
2022-10-29T19:44:03.007Z,5.40
2022-10-29T19:46:30.927Z,4.10
2022-10-29T19:48:59.118Z,4.10
2022-10-29T19:51:26.842Z,4.00
2022-10-29T19:53:54.955Z,4.30
2022-10-29T19:56:22.154Z,4.80
2022-10-29T19:58:49.800Z,5.00
2022-10-29T20:01:18.138Z,3.90
2022-10-29T20:03:46.448Z,4.40
2022-10-29T20:06:15.107Z,4.20
2022-10-29T20:08:42.405Z,4.40
2022-10-29T20:11:09.793Z,3.70
2022-10-29T20:13:37.945Z,3.93
2022-10-29T20:16:16.115Z,4.47
2022-10-29T20:18:43.550Z,4.47
2022-10-29T20:21:10.728Z,4.10
2022-10-29T20:23:38.218Z,3.67
2022-10-29T20:26:05.651Z,3.87
2022-10-29T20:28:33.093Z,4.27
2022-10-29T20:31:31.705Z,5.97
2022-10-29T20:34:01.350Z,2.90
2022-10-29T20:36:31.437Z,4.10
2022-10-29T20:38:59.071Z,4.33
2022-10-29T20:41:26.554Z,3.80
2022-10-29T20:43:58.644Z,3.20
2022-10-29T20:46:26.535Z,3.23
2022-10-29T20:48:53.925Z,3.27
2022-10-29T20:51:22.838Z,3.60
2022-10-29T20:53:50.826Z,4.17
2022-10-29T20:56:19.622Z,3.57
2022-10-29T20:58:46.845Z,4.27
2022-10-29T21:01:18.311Z,3.00
2022-10-29T21:03:45.863Z,3.23
2022-10-29T21:06:17.037Z,3.20
2022-10-29T21:08:46.182Z,4.63
2022-10-29T21:11:14.890Z,3.70
2022-10-29T21:13:42.059Z,3.67
2022-10-29T21:16:28.667Z,3.23
2022-10-29T21:18:58.074Z,3.97
2022-10-29T21:21:25.949Z,3.27
2022-10-29T21:23:53.236Z,3.73
2022-10-29T21:26:22.496Z,4.37
2022-10-29T21:28:50.980Z,4.43
2022-10-29T21:31:19.586Z,3.67
2022-10-29T21:33:49.838Z,3.60
2022-10-29T21:36:17.027Z,3.87
2022-10-29T21:38:44.241Z,3.87
2022-10-29T21:41:11.570Z,3.63
2022-10-29T21:43:39.251Z,3.77
2022-10-29T21:46:07.342Z,3.30
2022-10-29T21:48:34.612Z,3.70
2022-10-29T21:51:06.813Z,3.30
2022-10-29T21:53:37.702Z,2.83
2022-10-29T21:56:07.383Z,3.43
2022-10-29T21:58:34.618Z,3.07
2022-10-29T22:01:10.035Z,3.73
2022-10-29T22:03:40.466Z,3.00
2022-10-29T22:06:12.943Z,4.17
2022-10-29T22:08:40.160Z,3.80
2022-10-29T22:11:08.011Z,3.50
2022-10-29T22:13:35.895Z,4.10
2022-10-29T22:16:05.133Z,4.10
2022-10-29T22:18:32.584Z,3.40
2022-10-29T22:21:22.241Z,2.60
2022-10-29T22:23:51.806Z,4.23
2022-10-29T22:26:21.199Z,3.13
2022-10-29T22:28:48.542Z,3.47
2022-10-29T22:31:17.718Z,3.50
2022-10-29T22:33:45.554Z,2.83
2022-10-29T22:36:15.649Z,3.77
2022-10-29T22:38:43.833Z,3.37
2022-10-29T22:41:16.543Z,3.70
2022-10-29T22:43:44.546Z,3.20
2022-10-29T22:46:14.735Z,3.33
2022-10-29T22:48:43.666Z,4.10
2022-10-29T22:51:31.445Z,3.50
2022-10-29T22:53:58.917Z,3.57
2022-10-29T22:56:31.934Z,3.30
2022-10-29T22:58:59.529Z,2.90
2022-10-29T23:01:32.256Z,2.80
2022-10-29T23:03:59.956Z,3.47
2022-10-29T23:06:28.492Z,3.53
2022-10-29T23:08:58.571Z,2.80
2022-10-29T23:11:28.285Z,2.97
2022-10-29T23:14:00.052Z,2.60
2022-10-29T23:16:29.543Z,2.67
2022-10-29T23:18:59.651Z,4.57
2022-10-29T23:21:27.622Z,3.60
2022-10-29T23:23:55.039Z,4.40
2022-10-29T23:26:23.814Z,3.07
2022-10-29T23:28:51.305Z,2.53
2022-10-29T23:31:21.032Z,2.90
2022-10-29T23:33:50.707Z,3.30
2022-10-29T23:36:19.219Z,3.63
2022-10-29T23:38:46.567Z,3.63
2022-10-29T23:41:14.327Z,3.20
2022-10-29T23:43:41.509Z,3.10
2022-10-29T23:46:08.635Z,3.00
2022-10-29T23:48:35.792Z,3.10
2022-10-29T23:51:03.079Z,2.97
2022-10-29T23:53:30.852Z,2.77
2022-10-29T23:55:58.003Z,3.77
2022-10-29T23:58:25.405Z,2.80
